Seaforce — VHEO — position and weather

sailwx.info

Track history (hours):
 
Tides and Currents Weather Stations Pressure Air Temp Water Temp Dewpoint Dewpoint Depression Visibility Wind Speed Wind Dir Waves Ship Positions

Seaforce

Last reported at 2018-Apr-24 04:28 UTC. Time now 2018-Apr-24 05:06 UTC.
Position S 35°06' E 138°28'.

Length 30 m; draft 3.9 m.

Type: Tug. MMSI: 503649700.

Date/timePositionNaut miles runAvg speedWind from/ knotsBaromVisibWave heightAir tempDewpointWater temp
2018-Apr-24 04:28S 35°06' E 138°28'0 0.0
2018-Apr-23 22:04S 35°06' E 138°28'0 0.0
2018-Apr-23 21:58S 35°06' E 138°28'0 0.0
2018-Apr-23 10:19S 35°06' E 138°28'0 0.0
2018-Apr-23 09:58S 35°06' E 138°28'0 0.0
2018-Apr-23 08:07S 35°06' E 138°28'0 0.3
2018-Apr-23 07:58S 35°06' E 138°28'0 0.5
2018-Apr-23 07:28S 35°06' E 138°28'0 0.0
2018-Apr-23 06:25S 35°06' E 138°28'0 0.1
2018-Apr-23 06:00S 35°06' E 138°28'3 1.8
2018-Apr-23 04:32S 35°03' E 138°28'0 7.3
2018-Apr-23 04:30S 35°03' E 138°27'13 2.8
2018-Apr-22 23:48S 34°50' E 138°31'0 0.0
2018-Apr-22 07:26S 34°50' E 138°30'0 0.0
2018-Apr-22 07:00S 34°50' E 138°30'4 0.1
2018-Apr-21 05:39S 34°49' E 138°26'0 0.9
2018-Apr-21 05:30S 34°49' E 138°26'0 0.2
2018-Apr-21 04:55S 34°49' E 138°26'14 3.4
2018-Apr-21 00:45S 35°03' E 138°27'1 6.0
2018-Apr-21 00:30S 35°05' E 138°27'2 1.2
2018-Apr-20 22:59S 35°06' E 138°28'0 0.3
2018-Apr-20 22:30S 35°06' E 138°28'0 0.7
2018-Apr-20 22:00S 35°06' E 138°28'0 0.0
2018-Apr-20 13:33S 35°06' E 138°28'0 0.4
2018-Apr-20 13:31S 35°06' E 138°28'0 0.0
2018-Apr-20 11:09S 35°06' E 138°28'0 0.0
2018-Apr-20 11:01S 35°06' E 138°28'0 0.0
2018-Apr-20 09:22S 35°06' E 138°28'0 0.0
2018-Apr-20 09:00S 35°06' E 138°28'0 0.0
2018-Apr-20 06:51S 35°06' E 138°28'0 0.3
2018-Apr-20 06:30S 35°06' E 138°28'0 0.0
2018-Apr-20 05:50S 35°06' E 138°28'0 0.0
2018-Apr-20 05:30S 35°06' E 138°28'0 0.0
2018-Apr-20 04:29S 35°06' E 138°28'0 0.0
2018-Apr-20 04:00S 35°06' E 138°28'0 0.0
2018-Apr-19 23:05S 35°06' E 138°28'0 0.0
2018-Apr-19 23:00S 35°06' E 138°28'0 0.0
2018-Apr-19 10:29S 35°06' E 138°28'0 0.0
2018-Apr-19 10:00S 35°06' E 138°28'0 0.0
2018-Apr-19 09:30S 35°06' E 138°28'0 0.0
2018-Apr-18 06:14S 35°06' E 138°28'0 0.0
2018-Apr-18 06:01S 35°06' E 138°28'0 0.0
2018-Apr-17 11:18S 35°06' E 138°28'0 0.0
2018-Apr-17 11:00S 35°06' E 138°28'0 0.0
2018-Apr-16 23:06S 35°07' E 138°28'0 1.0
2018-Apr-16 23:01S 35°07' E 138°28'0 0.0
2018-Apr-16 10:50S 35°06' E 138°28'0 0.0
2018-Apr-16 10:30S 35°06' E 138°28'0 0.0
2018-Apr-16 07:58S 35°06' E 138°28'0 0.0
2018-Apr-16 07:31S 35°06' E 138°28'  
Track history (hours):
 
Tides and Currents Weather Stations Pressure Air Temp Water Temp Dewpoint Dewpoint Depression Visibility Wind Speed Wind Dir Waves Ship Positions

Seaforce

Last reported at 2018-Apr-24 04:28 UTC. Time now 2018-Apr-24 05:06 UTC.
Position S 35°06' E 138°28'.

Length 30 m; draft 3.9 m.

Type: Tug. MMSI: 503649700.

Date/timePositionNaut miles runAvg speedWind from/ knotsBaromVisibWave heightAir tempDewpointWater temp
2018-Apr-24 04:28S 35°06' E 138°28'0 0.0
2018-Apr-23 22:04S 35°06' E 138°28'0 0.0
2018-Apr-23 21:58S 35°06' E 138°28'0 0.0
2018-Apr-23 10:19S 35°06' E 138°28'0 0.0
2018-Apr-23 09:58S 35°06' E 138°28'0 0.0
2018-Apr-23 08:07S 35°06' E 138°28'0 0.3
2018-Apr-23 07:58S 35°06' E 138°28'0 0.5
2018-Apr-23 07:28S 35°06' E 138°28'0 0.0
2018-Apr-23 06:25S 35°06' E 138°28'0 0.1
2018-Apr-23 06:00S 35°06' E 138°28'3 1.8
2018-Apr-23 04:32S 35°03' E 138°28'0 7.3
2018-Apr-23 04:30S 35°03' E 138°27'13 2.8
2018-Apr-22 23:48S 34°50' E 138°31'0 0.0
2018-Apr-22 07:26S 34°50' E 138°30'0 0.0
2018-Apr-22 07:00S 34°50' E 138°30'4 0.1
2018-Apr-21 05:39S 34°49' E 138°26'0 0.9
2018-Apr-21 05:30S 34°49' E 138°26'0 0.2
2018-Apr-21 04:55S 34°49' E 138°26'14 3.4
2018-Apr-21 00:45S 35°03' E 138°27'1 6.0
2018-Apr-21 00:30S 35°05' E 138°27'2 1.2
2018-Apr-20 22:59S 35°06' E 138°28'0 0.3
2018-Apr-20 22:30S 35°06' E 138°28'0 0.7
2018-Apr-20 22:00S 35°06' E 138°28'0 0.0
2018-Apr-20 13:33S 35°06' E 138°28'0 0.4
2018-Apr-20 13:31S 35°06' E 138°28'0 0.0
2018-Apr-20 11:09S 35°06' E 138°28'0 0.0
2018-Apr-20 11:01S 35°06' E 138°28'0 0.0
2018-Apr-20 09:22S 35°06' E 138°28'0 0.0
2018-Apr-20 09:00S 35°06' E 138°28'0 0.0
2018-Apr-20 06:51S 35°06' E 138°28'0 0.3
2018-Apr-20 06:30S 35°06' E 138°28'0 0.0
2018-Apr-20 05:50S 35°06' E 138°28'0 0.0
2018-Apr-20 05:30S 35°06' E 138°28'0 0.0
2018-Apr-20 04:29S 35°06' E 138°28'0 0.0
2018-Apr-20 04:00S 35°06' E 138°28'0 0.0
2018-Apr-19 23:05S 35°06' E 138°28'0 0.0
2018-Apr-19 23:00S 35°06' E 138°28'0 0.0
2018-Apr-19 10:29S 35°06' E 138°28'0 0.0
2018-Apr-19 10:00S 35°06' E 138°28'0 0.0
2018-Apr-19 09:30S 35°06' E 138°28'0 0.0
2018-Apr-18 06:14S 35°06' E 138°28'0 0.0
2018-Apr-18 06:01S 35°06' E 138°28'0 0.0
2018-Apr-17 11:18S 35°06' E 138°28'0 0.0
2018-Apr-17 11:00S 35°06' E 138°28'0 0.0
2018-Apr-16 23:06S 35°07' E 138°28'0 1.0
2018-Apr-16 23:01S 35°07' E 138°28'0 0.0
2018-Apr-16 10:50S 35°06' E 138°28'0 0.0
2018-Apr-16 10:30S 35°06' E 138°28'0 0.0
2018-Apr-16 07:58S 35°06' E 138°28'0 0.0
2018-Apr-16 07:31S 35°06' E 138°28'  

Dump ship's entire track history